Terminal Aerodrome Forecast
Issued by NWS Denver/Boulder, CO

Home | Current Version | Previous Version | Text Only | Print | Product List | Glossary On
Versions: 1 2 3 4 5 6 7 8 9 10 11 12 13 14 15 16 17 18 19 20 21 22 23 24 25 26 27 28 29 30 31 32 33 34 35 36 37 38 39 40 41 42 43 44 45 46 47 48 49 50
940
FTUS45 KBOU 131553 AAS
TAFDEN
TAF AMD
KDEN 131553Z 1316/1418 27014KT P6SM FEW070 SCT120 SCT200
     FM131800 30021G34KT P6SM FEW120 BKN200
     FM132300 33014G24KT P6SM FEW120 BKN200
     FM140100 02008KT P6SM FEW120 SCT220
     FM140500 17010KT P6SM SCT120 BKN180
     FM141000 15010KT P6SM SCT070 BKN120
     FM141400 14008KT P6SM SCT050 BKN080=

USA.gov is the U.S. government's official web portal to all federal, state and local government web resources and services.